Nucla Hopkins Field Airport, CO

3:32 AM MDT on July 25, 2017 (GMT -0600)
Nucla Hopkins Field Airport

Weather History for KAIB - April, 2014

Change the Weather History Date:

Tuesday, April 1, 2014

  Actual Average (KTEX) Record (KTEX)
Temperature  
Mean Temperature 50 °F -  
Max Temperature 59 °F 42 °F 57 °F (2002)
Min Temperature 41 °F 23 °F 3 °F (2005)
Degree Days  
Heating Degree Days 14    
Moisture  
Dew Point 8 °F    
Average Humidity 18    
Maximum Humidity 31    
Minimum Humidity 11    
Precipitation  
Precipitation 0.00 in - - ()
Sea Level Pressure  
Sea Level Pressure 29.78 in    
Wind  
Wind Speed 18 mph (SW)    
Max Wind Speed 31 mph    
Max Gust Speed 43 mph    
Visibility 10 miles    
Events      
Averages and records for this station are not official NWS values.
T = Trace of Precipitation, MM = Missing Value Source: NWS Daily Summary

Daily Weather History Graph

Daily Weather History Graph

Search for Another Location

Airport or City:

Trip Planner

Search our weather history database for the weather conditions in past years. The results will help you decide how hot, cold, wet, or windy it might be!

Date:

Astronomy

Apr. 01, 2014 Rise Set
Actual Time 6:59 AM MDT 7:37 PM MDT
Civil Twilight 6:32 AM MDT 8:04 PM MDT
Nautical Twilight 6:01 AM MDT 8:35 PM MDT
Astronomical Twilight 5:29 AM MDT 9:08 PM MDT
Moon 8:05 AM MDT (4/1) 10:01 PM MDT (4/1)
Length of Visible Light 13h 31m
Length of Day
12h 38m
Waxing Crescent, 5% of the Moon is Illuminated
Apr 1
Waxing Crescent
Apr 7
First Quarter
Apr 15
Full
Apr 22
Last Quarter
Apr 29
New

Hourly Weather History & Observations

Time (MDT) Temp. Windchill Dew Point Humidity Pressure Visibility Wind Dir Wind Speed Gust Speed Precip Events Conditions
12:15 AM 44.6 °F 40.2 °F 10.4 °F 25% 29.86 in 10.0 mi South 8.1 mph - N/A   Scattered Clouds
12:35 AM 50.0 °F - 10.4 °F 20% 29.85 in 10.0 mi SSW 17.3 mph 27.6 mph N/A   Scattered Clouds
12:55 AM 50.0 °F - 8.6 °F 19% 29.85 in 10.0 mi SSW 20.7 mph 28.8 mph N/A   Scattered Clouds
1:15 AM 50.0 °F - 8.6 °F 19% 29.85 in 10.0 mi South 20.7 mph 27.6 mph N/A   Clear
1:35 AM 50.0 °F - 8.6 °F 19% 29.85 in 10.0 mi SSW 17.3 mph 28.8 mph N/A   Clear
2:15 AM 50.0 °F - 8.6 °F 19% 29.84 in 10.0 mi SSW 18.4 mph 26.5 mph N/A   Mostly Cloudy
2:35 AM 50.0 °F - 8.6 °F 19% 29.84 in 10.0 mi SSW 15.0 mph 24.2 mph N/A   Mostly Cloudy
2:55 AM 50.0 °F - 8.6 °F 19% 29.83 in 10.0 mi South 24.2 mph 32.2 mph N/A   Overcast
3:15 AM 50.0 °F - 8.6 °F 19% 29.83 in 10.0 mi South 21.9 mph 31.1 mph N/A   Overcast
3:35 AM 50.0 °F - 8.6 °F 19% 29.82 in 10.0 mi South 20.7 mph 33.4 mph N/A   Overcast
3:55 AM 50.0 °F - 8.6 °F 19% 29.81 in 10.0 mi South 23.0 mph 33.4 mph N/A   Overcast
4:15 AM 50.0 °F - 8.6 °F 19% 29.81 in 10.0 mi SSW 24.2 mph 33.4 mph N/A   Overcast
4:35 AM 50.0 °F - 8.6 °F 19% 29.81 in 10.0 mi SSW 21.9 mph 35.7 mph N/A   Overcast
4:55 AM 50.0 °F - 8.6 °F 19% 29.81 in 10.0 mi SSW 26.5 mph 38.0 mph N/A   Mostly Cloudy
5:15 AM 50.0 °F - 6.8 °F 17% 29.81 in 10.0 mi SSW 21.9 mph 32.2 mph N/A   Clear
5:35 AM 48.2 °F - 6.8 °F 19% 29.81 in 10.0 mi SSW 19.6 mph 32.2 mph N/A   Clear
5:55 AM 48.2 °F - 5.0 °F 17% 29.81 in 10.0 mi South 19.6 mph 27.6 mph N/A   Scattered Clouds
6:15 AM 48.2 °F - 5.0 °F 17% 29.80 in 10.0 mi SSW 24.2 mph 29.9 mph N/A   Scattered Clouds
6:35 AM 46.4 °F 38.1 °F 5.0 °F 18% 29.81 in 10.0 mi SSW 24.2 mph 29.9 mph N/A   Mostly Cloudy
6:55 AM 46.4 °F 38.1 °F 5.0 °F 18% 29.81 in 10.0 mi SSW 24.2 mph 32.2 mph N/A   Mostly Cloudy
7:15 AM 46.4 °F 38.7 °F 5.0 °F 18% 29.81 in 10.0 mi SSW 20.7 mph 31.1 mph N/A   Overcast
7:35 AM 46.4 °F 39.5 °F 6.8 °F 20% 29.82 in 10.0 mi SSW 17.3 mph 29.9 mph N/A   Mostly Cloudy
7:55 AM 46.4 °F 40.4 °F 8.6 °F 22% 29.82 in 10.0 mi SSW 13.8 mph 31.1 mph N/A   Mostly Cloudy
8:15 AM 46.4 °F 39.2 °F 8.6 °F 22% 29.82 in 10.0 mi SSW 18.4 mph 28.8 mph N/A   Mostly Cloudy
8:35 AM 48.2 °F - 8.6 °F 20% 29.82 in 10.0 mi SSW 13.8 mph 24.2 mph N/A   Overcast
8:55 AM 48.2 °F - 8.6 °F 20% 29.82 in 10.0 mi SW 17.3 mph 25.3 mph N/A   Overcast
9:15 AM 48.2 °F - 10.4 °F 22% 29.82 in 10.0 mi SSW 17.3 mph 26.5 mph N/A   Overcast
9:35 AM 50.0 °F - 10.4 °F 20% 29.82 in 10.0 mi SW 11.5 mph 21.9 mph N/A   Overcast
9:55 AM 50.0 °F - 10.4 °F 20% 29.82 in 10.0 mi South 21.9 mph 28.8 mph N/A   Overcast
10:15 AM 50.0 °F - 10.4 °F 20% 29.82 in 10.0 mi SSW 18.4 mph 26.5 mph N/A   Overcast
10:35 AM 50.0 °F - 10.4 °F 20% 29.82 in 10.0 mi SSW 20.7 mph 33.4 mph N/A   Overcast
10:55 AM 50.0 °F - 8.6 °F 19% 29.82 in 10.0 mi SSW 23.0 mph 32.2 mph N/A   Overcast
11:15 AM 51.8 °F - 8.6 °F 18% 29.81 in 10.0 mi SW 19.6 mph 34.5 mph N/A   Scattered Clouds
11:35 AM 53.6 °F - 8.6 °F 16% 29.80 in 10.0 mi SW 24.2 mph 35.7 mph N/A   Scattered Clouds
11:55 AM 55.4 °F - 8.6 °F 15% 29.80 in 10.0 mi SSW 31.1 mph 39.1 mph N/A   Mostly Cloudy
12:15 PM 55.4 °F - 8.6 °F 15% 29.79 in 10.0 mi SSW 29.9 mph 38.0 mph N/A   Mostly Cloudy
12:35 PM 55.4 °F - 6.8 °F 14% 29.78 in 10.0 mi SSW 28.8 mph 41.4 mph N/A   Scattered Clouds
12:55 PM 55.4 °F - 8.6 °F 15% 29.78 in 10.0 mi SSW 27.6 mph 39.1 mph N/A   Scattered Clouds
1:15 PM 57.2 °F - 8.6 °F 14% 29.76 in 10.0 mi SSW 27.6 mph 38.0 mph N/A   Scattered Clouds
1:35 PM 55.4 °F - 5.0 °F 13% 29.76 in 10.0 mi SSW 28.8 mph 42.6 mph N/A   Clear
1:55 PM 55.4 °F - 6.8 °F 14% 29.76 in 10.0 mi SSW 23.0 mph 33.4 mph N/A   Scattered Clouds
2:15 PM 59.0 °F - 6.8 °F 13% 29.75 in 10.0 mi SW 28.8 mph 39.1 mph N/A   Clear
2:35 PM 59.0 °F - 5.0 °F 12% 29.74 in 10.0 mi SSW 23.0 mph 38.0 mph N/A   Scattered Clouds
2:55 PM 59.0 °F - 6.8 °F 13% 29.74 in 10.0 mi SW 26.5 mph 38.0 mph N/A   Clear
3:15 PM 59.0 °F - 6.8 °F 13% 29.73 in 10.0 mi SW 18.4 mph 36.8 mph N/A   Clear
3:35 PM 59.0 °F - 5.0 °F 12% 29.73 in 10.0 mi SW 23.0 mph 33.4 mph N/A   Clear
3:55 PM 59.0 °F - 5.0 °F 12% 29.72 in 10.0 mi SW 21.9 mph 38.0 mph N/A   Clear
4:15 PM 59.0 °F - 3.2 °F 11% 29.71 in 10.0 mi SW 24.2 mph 33.4 mph N/A   Clear
4:35 PM 59.0 °F - 3.2 °F 11% 29.71 in 10.0 mi SW 18.4 mph 28.8 mph N/A   Clear
4:55 PM 59.0 °F - 3.2 °F 11% 29.70 in 10.0 mi SW 16.1 mph 29.9 mph N/A   Clear
5:15 PM 59.0 °F - 3.2 °F 11% 29.70 in 10.0 mi SSW 28.8 mph 34.5 mph N/A   Clear
5:35 PM 59.0 °F - 3.2 °F 11% 29.70 in 10.0 mi SW 28.8 mph 40.3 mph N/A   Clear
5:55 PM 57.2 °F - 3.2 °F 11% 29.70 in 10.0 mi SW 21.9 mph 36.8 mph N/A   Clear
6:15 PM 57.2 °F - 3.2 °F 11% 29.71 in 10.0 mi SW 27.6 mph 35.7 mph N/A   Clear
6:35 PM 55.4 °F - 5.0 °F 13% 29.71 in 10.0 mi WSW 19.6 mph 27.6 mph N/A   Clear
6:55 PM 55.4 °F - 3.2 °F 12% 29.71 in 10.0 mi WSW 16.1 mph 25.3 mph N/A   Clear
7:15 PM 55.4 °F - 3.2 °F 12% 29.71 in 10.0 mi SW 15.0 mph 24.2 mph N/A   Clear
7:35 PM 53.6 °F - 3.2 °F 13% 29.71 in 10.0 mi SW 13.8 mph 19.6 mph N/A   Clear
7:55 PM 53.6 °F - 3.2 °F 13% 29.71 in 10.0 mi SW 10.4 mph - N/A   Clear
8:15 PM 51.8 °F - 5.0 °F 15% 29.72 in 10.0 mi WSW 8.1 mph - N/A   Clear
8:35 PM 51.8 °F - 5.0 °F 15% 29.72 in 10.0 mi SW 11.5 mph - N/A   Clear
8:55 PM 51.8 °F - 5.0 °F 15% 29.73 in 10.0 mi West 5.8 mph 16.1 mph N/A   Clear
9:15 PM 50.0 °F - 8.6 °F 19% 29.73 in 10.0 mi Calm Calm - N/A   Clear
9:35 PM 48.2 °F - 12.2 °F 24% 29.74 in 10.0 mi WNW 5.8 mph - N/A   Clear
9:55 PM 46.4 °F 42.9 °F 12.2 °F 25% 29.75 in 10.0 mi West 6.9 mph - N/A   Clear
10:15 PM 44.6 °F 40.2 °F 12.2 °F 27% 29.75 in 10.0 mi West 8.1 mph - N/A   Clear
10:35 PM 44.6 °F 41.4 °F 12.2 °F 27% 29.75 in 10.0 mi WSW 5.8 mph - N/A   Clear
10:55 PM 44.6 °F 40.7 °F 12.2 °F 27% 29.76 in 10.0 mi WSW 6.9 mph - N/A   Clear
11:15 PM 42.8 °F 40.1 °F 12.2 °F 29% 29.76 in 10.0 mi SW 4.6 mph - N/A   Clear
11:35 PM 44.6 °F - 14.0 °F 29% 29.76 in 10.0 mi Calm Calm - N/A   Clear
11:55 PM 41.0 °F - 12.2 °F 31% 29.77 in 10.0 mi Calm Calm - N/A   Clear